Graniteville, California
Current Conditions -  °F | °C
As of 3:52 PM on Saturday 25 Oct 2014 (Local Time) from KBLU Reporting Station
Moderate Fog Moderate Fog  
Wind Chill: 38°   Ceiling: 300
Heat Index: 43°   Visibility: 0.25mi
Dew Point: 41°   Wind: 8mph
Humidity: 93%   Direction: 140°SE
Pressure: 30.14"   Gusts: NA
Location:  39.3517°N, 120.851°W
Report Text: KBLU 252252Z AUTO 14007KT 1/4SM FG VV003 06/05 A3014 RMK AO2 RAE07 SLP179 P0001 T00610050
Loading
Personal Weather Stations






























Interactive Weather Map
Tropical Storm Tracking
New forecast layout! Learn more

10-Day Weather Forecast

Advertisements
Track Severe Weather on mobile